Agata, Russia
Current Conditions -  °F | °C
As of 3:30 PM on Thursday 23 Oct 2014 (Local Time) from USNN Reporting Station
Clear Clear  
Wind Chill: 16°   Ceiling: Unl
Heat Index: 16°   Visibility: 6mi
Dew Point:   Wind: 0mph
Humidity: 62%   Direction: NA
Pressure: 29.97"   Gusts: NA
Location:  66.92°N, 93.5°E
Report Text: USNN 230830Z 00000MPS CAVOK M09/M15 Q1015 NOSIG RMK QFE75621410163
Loading
Personal Weather Stations






























Interactive Weather Map
Tropical Storm Tracking
New forecast layout! Learn more

10-Day Weather Forecast

Advertisements
Track Severe Weather on mobile